Time;durP1;ratioP1;P1;durP2;ratioP2;P2;SDS_P1;SDS_P2;PMS_P1;PMS_P2;Temp;Humidity;BMP_temperature;BMP_pressure;BME280_temperature;BME280_humidity;BME280_pressure;Samples;Min_cycle;Max_cycle;Signal;HPM_P1;HPM_P2
2023/03/31 00:01:05;;;;;;;29.90;13.50;;;;;;;16.36;30.14;99624.16;108154;1256;62284;-67
2023/03/31 00:03:37;;;;;;;40.80;17.60;;;;;;;16.41;30.14;99625.05;108050;1255;60171;-66
2023/03/31 00:06:06;;;;;;;39.80;17.60;;;;;;;16.38;30.10;99624.58;108099;1257;73906;-66
2023/03/31 00:08:36;;;;;;;40.90;16.80;;;;;;;16.55;29.98;99626.52;108077;1255;71320;-66
2023/03/31 00:11:03;;;;;;;42.40;18.60;;;;;;;16.55;30.02;99628.69;108049;1254;73964;-65
2023/03/31 00:13:32;;;;;;;27.30;12.90;;;;;;;16.47;29.95;99629.81;108127;1254;61025;-67
2023/03/31 00:16:04;;;;;;;46.80;21.90;;;;;;;16.32;30.21;99629.93;108107;1256;60530;-66
2023/03/31 00:18:31;;;;;;;52.20;22.60;;;;;;;16.23;30.18;99629.16;108127;1254;73309;-66
2023/03/31 00:21:23;;;;;;;40.80;17.00;;;;;;;16.21;30.19;99628.20;108029;1258;70707;-65
2023/03/31 00:23:52;;;;;;;52.80;24.70;;;;;;;16.18;30.27;99627.00;108090;1257;72319;-66
2023/03/31 00:26:28;;;;;;;54.80;23.80;;;;;;;16.07;30.32;99624.20;107972;1255;62232;-66
2023/03/31 00:28:56;;;;;;;57.50;23.70;;;;;;;16.16;30.27;99620.90;108103;1256;61261;-65
2023/03/31 00:31:23;;;;;;;41.80;19.30;;;;;;;16.24;30.11;99618.24;108028;1255;74187;-66
2023/03/31 00:33:50;;;;;;;41.20;18.10;;;;;;;16.19;30.24;99617.52;108002;1257;71418;-66
2023/03/31 00:36:20;;;;;;;45.60;18.70;;;;;;;16.27;30.24;99617.36;108117;1256;72456;-66
2023/03/31 00:38:47;;;;;;;43.00;18.40;;;;;;;16.36;30.19;99612.30;108076;1256;61901;-65
2023/03/31 00:41:14;;;;;;;38.20;17.60;;;;;;;16.34;30.22;99606.80;108177;1254;59391;-65
2023/03/31 00:44:12;;;;;;;39.40;17.70;;;;;;;16.24;30.38;99610.66;108074;1254;74018;-67
2023/03/31 00:47:06;;;;;;;32.70;15.10;;;;;;;16.28;30.31;99611.64;107993;1256;70738;-66
2023/03/31 00:49:35;;;;;;;30.40;12.80;;;;;;;16.14;30.53;99609.89;107997;1254;72668;-65
2023/03/31 00:52:12;;;;;;;30.90;13.60;;;;;;;15.88;30.75;99603.20;108109;1254;59621;-66
2023/03/31 00:54:39;;;;;;;37.90;16.00;;;;;;;15.93;30.77;99600.00;108116;1256;61185;-66
2023/03/31 00:57:06;;;;;;;34.10;15.20;;;;;;;15.96;30.71;99594.86;107995;1255;71933;-67
2023/03/31 00:59:38;;;;;;;34.30;15.00;;;;;;;16.03;30.68;99592.73;107944;1258;71545;-66
2023/03/31 01:02:05;;;;;;;32.60;14.50;;;;;;;16.15;30.66;99589.08;108001;1254;71927;-65
2023/03/31 01:04:35;;;;;;;24.90;11.90;;;;;;;16.50;30.31;99583.17;108072;1256;60538;-66
2023/03/31 01:07:11;;;;;;;28.30;13.20;;;;;;;16.41;30.49;99588.17;107927;1257;61329;-67
2023/03/31 01:09:37;;;;;;;26.50;13.50;;;;;;;16.19;30.83;99584.60;107936;1258;74181;-67
2023/03/31 01:12:07;;;;;;;38.00;15.90;;;;;;;16.26;30.95;99581.14;107803;1256;70143;-65
2023/03/31 01:14:34;;;;;;;41.40;16.80;;;;;;;16.46;30.69;99579.48;107988;1254;72926;-65
2023/03/31 01:17:01;;;;;;;30.80;14.40;;;;;;;16.69;30.38;99575.29;107875;1258;61628;-65
2023/03/31 01:19:58;;;;;;;39.40;15.50;;;;;;;16.73;30.31;99572.37;107945;1256;61112;-66
2023/03/31 01:22:36;;;;;;;36.90;17.00;;;;;;;16.81;30.16;99573.52;107909;1256;74311;-67
2023/03/31 01:25:12;;;;;;;38.30;17.50;;;;;;;16.88;29.99;99563.98;107940;1256;68221;-66
2023/03/31 01:27:45;;;;;;;38.80;19.10;;;;;;;16.87;29.98;99562.81;107892;1256;73783;-66
2023/03/31 01:30:35;;;;;;;40.80;18.90;;;;;;;16.94;29.89;99561.27;107859;1255;59738;-65
2023/03/31 01:33:22;;;;;;;36.10;15.80;;;;;;;16.91;29.94;99563.40;107862;1256;60602;-65
2023/03/31 01:36:17;;;;;;;41.80;18.60;;;;;;;17.05;29.84;99554.09;107941;1255;73256;-65
2023/03/31 01:38:56;;;;;;;34.90;16.90;;;;;;;16.78;30.27;99554.04;107737;1256;70376;-66
2023/03/31 01:41:27;;;;;;;35.00;16.80;;;;;;;16.93;30.07;99550.88;107904;1256;72181;-65
2023/03/31 01:44:16;;;;;;;40.90;20.20;;;;;;;17.05;29.99;99547.91;107953;1255;62102;-65
2023/03/31 01:47:16;;;;;;;47.90;20.30;;;;;;;16.94;30.11;99546.87;108024;1258;59633;-65
2023/03/31 01:49:56;;;;;;;46.50;20.10;;;;;;;17.11;30.01;99544.77;107944;1256;73907;-65
2023/03/31 01:52:27;;;;;;;43.90;20.30;;;;;;;16.99;30.12;99541.58;107977;1256;70487;-66
2023/03/31 01:55:03;;;;;;;43.30;21.10;;;;;;;17.21;29.96;99547.41;107954;1256;73617;-64
2023/03/31 01:57:31;;;;;;;42.60;18.70;;;;;;;17.11;30.11;99547.61;107941;1257;60971;-65
2023/03/31 02:00:08;;;;;;;47.70;20.90;;;;;;;17.05;30.13;99546.80;108033;1255;60092;-65
2023/03/31 02:03:15;;;;;;;37.80;17.90;;;;;;;17.07;30.10;99548.46;107909;1256;74076;-67
2023/03/31 02:05:45;;;;;;;39.40;17.30;;;;;;;16.98;30.27;99542.73;107934;1256;70838;-66
2023/03/31 02:08:15;;;;;;;41.60;18.40;;;;;;;17.27;29.99;99531.85;107909;1256;71257;-65
2023/03/31 02:10:43;;;;;;;45.00;20.50;;;;;;;17.34;29.96;99528.73;107922;1256;61574;-65
2023/03/31 02:13:12;;;;;;;41.70;18.70;;;;;;;17.41;29.83;99521.96;107888;1256;59654;-66
2023/03/31 02:15:45;;;;;;;53.80;23.90;;;;;;;17.31;30.07;99519.17;108069;1257;73229;-65
2023/03/31 02:18:16;;;;;;;42.50;21.00;;;;;;;17.19;30.02;99517.95;108024;1256;70498;-64
2023/03/31 02:20:45;;;;;;;36.20;18.20;;;;;;;17.13;30.17;99516.26;107699;1255;73843;-66
2023/03/31 02:23:12;;;;;;;43.90;19.60;;;;;;;17.42;29.96;99504.85;107916;1256;61917;-66
2023/03/31 02:25:45;;;;;;;40.20;16.90;;;;;;;17.07;30.21;99497.66;107972;1256;60340;-66
2023/03/31 02:28:15;;;;;;;38.70;17.80;;;;;;;16.58;30.98;99497.30;107696;1256;73120;-66
2023/03/31 02:30:50;;;;;;;43.50;22.20;;;;;;;17.03;30.28;99488.10;107958;1256;72079;-65
2023/03/31 02:33:20;;;;;;;33.90;16.40;;;;;;;16.85;29.97;99483.21;107996;1256;73855;-66
2023/03/31 02:35:48;;;;;;;38.40;18.30;;;;;;;16.86;29.48;99475.11;107940;1260;62335;-67
2023/03/31 02:38:14;;;;;;;31.70;16.00;;;;;;;16.96;28.66;99469.77;108104;1256;60193;-65
2023/03/31 02:40:43;;;;;;;36.60;15.40;;;;;;;17.15;28.02;99475.85;108092;1256;73877;-65
2023/03/31 02:43:10;;;;;;;36.80;17.10;;;;;;;17.22;28.14;99475.34;108034;1256;71830;-65
2023/03/31 02:45:46;;;;;;;28.00;13.50;;;;;;;17.27;27.52;99472.46;107734;1261;73159;-64
2023/03/31 02:48:19;;;;;;;39.50;18.70;;;;;;;17.38;27.66;99464.67;107919;1255;60251;-64
2023/03/31 02:51:13;;;;;;;44.70;18.70;;;;;;;17.51;27.49;99466.41;107951;1254;61187;-65
2023/03/31 02:54:11;;;;;;;34.80;17.40;;;;;;;17.43;27.46;99467.86;108051;1258;73238;-65
2023/03/31 02:56:55;;;;;;;38.20;18.50;;;;;;;17.57;26.81;99467.85;108173;1253;70373;-65
2023/03/31 02:59:34;;;;;;;40.80;19.60;;;;;;;17.43;27.08;99465.19;108041;1258;73616;-64
2023/03/31 03:02:19;;;;;;;41.80;19.10;;;;;;;17.66;26.87;99468.41;108065;1256;61793;-65
2023/03/31 03:05:24;;;;;;;43.60;21.30;;;;;;;17.90;26.75;99467.46;108027;1255;60561;-65
2023/03/31 03:08:34;;;;;;;42.20;21.00;;;;;;;18.02;26.88;99472.43;107988;1254;74022;-67
2023/03/31 03:11:11;;;;;;;41.90;21.40;;;;;;;18.04;26.81;99472.73;108040;1254;69951;-65
2023/03/31 03:13:44;;;;;;;41.00;21.10;;;;;;;17.83;27.09;99466.27;108020;1256;72523;-66
2023/03/31 03:16:17;;;;;;;45.60;23.70;;;;;;;18.02;27.35;99465.50;108006;1254;59806;-66
2023/03/31 03:18:59;;;;;;;47.10;23.20;;;;;;;18.08;27.10;99471.39;107995;1256;60307;-65
2023/03/31 03:21:31;;;;;;;49.40;26.40;;;;;;;18.13;26.78;99467.80;107984;1256;72030;-65
2023/03/31 03:23:58;;;;;;;51.30;25.50;;;;;;;18.11;26.80;99471.31;107980;1254;71571;-66
2023/03/31 03:26:27;;;;;;;48.20;24.80;;;;;;;17.61;27.37;99473.77;107941;1256;73581;-67
2023/03/31 03:28:54;;;;;;;49.70;24.90;;;;;;;16.89;27.97;99469.23;107957;1258;61301;-66
2023/03/31 03:31:22;;;;;;;53.20;27.30;;;;;;;17.06;27.84;99459.09;107986;1255;61395;-66
2023/03/31 03:33:50;;;;;;;42.40;23.20;;;;;;;17.00;27.91;99455.83;107937;1254;74584;-65
2023/03/31 03:36:16;;;;;;;59.30;24.90;;;;;;;16.87;28.09;99448.10;107909;1260;70556;-65
2023/03/31 03:38:43;;;;;;;53.10;23.50;;;;;;;17.50;27.28;99444.95;107907;1258;72334;-66
2023/03/31 03:41:10;;;;;;;44.10;21.40;;;;;;;17.94;26.66;99446.97;107961;1254;62348;-65
2023/03/31 03:43:37;;;;;;;44.30;20.80;;;;;;;18.04;26.59;99450.39;108039;1254;61497;-67
2023/03/31 03:46:04;;;;;;;38.60;18.70;;;;;;;18.06;26.79;99454.50;108011;1257;73614;-65
2023/03/31 03:48:36;;;;;;;37.40;18.20;;;;;;;17.83;26.84;99446.96;107899;1256;71618;-65
2023/03/31 03:51:03;;;;;;;41.50;19.60;;;;;;;17.87;26.84;99444.47;107950;1254;73590;-65
2023/03/31 03:53:30;;;;;;;38.40;17.90;;;;;;;17.58;27.12;99439.77;107956;1256;62208;-66
2023/03/31 03:56:00;;;;;;;35.90;18.10;;;;;;;17.22;27.41;99439.16;107961;1254;59597;-65
2023/03/31 03:58:27;;;;;;;36.50;17.80;;;;;;;17.27;27.27;99435.01;107996;1260;74725;-65
2023/03/31 04:00:55;;;;;;;31.00;16.70;;;;;;;17.33;27.39;99438.80;108006;1254;71104;-66
2023/03/31 04:03:23;;;;;;;41.70;19.10;;;;;;;17.08;27.76;99433.95;107916;1255;71950;-67
2023/03/31 04:05:50;;;;;;;32.10;15.70;;;;;;;17.37;27.33;99428.38;108018;1256;60298;-67
2023/03/31 04:08:17;;;;;;;35.90;16.40;;;;;;;17.66;27.27;99432.03;108015;1254;61516;-66
2023/03/31 04:10:48;;;;;;;35.40;16.60;;;;;;;17.70;27.13;99429.64;108089;1256;74135;-66
2023/03/31 04:13:17;;;;;;;30.60;15.10;;;;;;;17.63;26.96;99430.30;108163;1258;68434;-66
2023/03/31 04:15:44;;;;;;;30.40;15.60;;;;;;;17.85;27.00;99432.54;108182;1258;73872;-62
2023/03/31 04:18:21;;;;;;;25.50;13.70;;;;;;;17.69;27.02;99431.80;108027;1256;61246;-67
2023/03/31 04:21:02;;;;;;;29.10;14.60;;;;;;;17.34;27.14;99433.04;108076;1258;61520;-65
2023/03/31 04:23:41;;;;;;;31.90;14.90;;;;;;;16.75;27.93;99430.72;108019;1254;74635;-66
2023/03/31 04:26:08;;;;;;;27.30;12.80;;;;;;;16.52;28.22;99429.76;108016;1256;71452;-66
2023/03/31 04:28:36;;;;;;;28.90;13.50;;;;;;;16.60;28.19;99426.83;108047;1254;73679;-66
2023/03/31 04:31:05;;;;;;;26.00;12.80;;;;;;;16.70;27.98;99428.58;108009;1254;61169;-66
2023/03/31 04:33:38;;;;;;;29.60;13.70;;;;;;;16.31;28.17;99423.80;108007;1254;60283;-66
2023/03/31 04:36:16;;;;;;;26.70;12.20;;;;;;;16.96;27.52;99415.73;108078;1254;74732;-67
2023/03/31 04:38:45;;;;;;;29.20;12.40;;;;;;;16.88;27.53;99410.63;108013;1254;71862;-66
2023/03/31 04:41:16;;;;;;;26.40;12.60;;;;;;;16.67;27.55;99407.03;108037;1254;73066;-66
2023/03/31 04:43:45;;;;;;;32.00;13.90;;;;;;;17.02;27.54;99398.55;108083;1258;60340;-66
2023/03/31 04:46:11;;;;;;;23.00;12.00;;;;;;;17.13;27.23;99397.91;108090;1254;61285;-67
2023/03/31 04:48:39;;;;;;;25.30;12.00;;;;;;;17.03;27.35;99396.59;107995;1254;72790;-66
2023/03/31 04:51:06;;;;;;;28.60;12.00;;;;;;;17.18;27.58;99399.91;108127;1254;68764;-66
2023/03/31 04:53:36;;;;;;;27.50;11.20;;;;;;;16.93;27.34;99397.48;108039;1254;74229;-67
2023/03/31 04:56:04;;;;;;;21.90;12.00;;;;;;;17.14;27.11;99392.39;108231;1254;61877;-66
2023/03/31 04:58:31;;;;;;;23.50;12.20;;;;;;;17.41;27.03;99391.52;108194;1254;60007;-66
2023/03/31 05:01:01;;;;;;;27.00;13.00;;;;;;;17.75;26.86;99390.48;108142;1257;73831;-67
2023/03/31 05:03:29;;;;;;;25.50;12.70;;;;;;;17.54;26.92;99390.05;108230;1254;71569;-67
2023/03/31 05:05:57;;;;;;;23.60;11.30;;;;;;;17.58;26.98;99387.05;108205;1253;72955;-66
2023/03/31 05:08:25;;;;;;;21.00;11.40;;;;;;;17.77;26.87;99385.34;108167;1253;61927;-67
2023/03/31 05:10:54;;;;;;;24.00;11.20;;;;;;;17.79;26.92;99383.63;108115;1254;60409;-67
2023/03/31 05:13:22;;;;;;;22.00;11.30;;;;;;;17.95;26.60;99382.44;108185;1254;74989;-67
2023/03/31 05:15:50;;;;;;;30.60;11.20;;;;;;;18.06;26.73;99374.45;108187;1257;71317;-66
2023/03/31 05:18:19;;;;;;;25.50;11.30;;;;;;;17.93;26.81;99375.10;108146;1259;73532;-65
2023/03/31 05:20:46;;;;;;;20.20;11.00;;;;;;;17.77;26.78;99375.43;108156;1253;62264;-66
2023/03/31 05:23:13;;;;;;;21.20;10.10;;;;;;;17.52;26.97;99375.25;108203;1257;60631;-66
2023/03/31 05:25:41;;;;;;;23.90;11.20;;;;;;;17.24;27.23;99368.34;108200;1254;74245;-66
2023/03/31 05:28:08;;;;;;;27.60;10.90;;;;;;;17.46;27.09;99363.99;108121;1254;71133;-66
2023/03/31 05:30:37;;;;;;;23.80;11.50;;;;;;;17.75;26.77;99360.88;108208;1257;73864;-66
2023/03/31 05:33:03;;;;;;;32.30;13.30;;;;;;;17.91;26.58;99353.11;107987;1254;60700;-66
2023/03/31 05:35:31;;;;;;;26.50;13.00;;;;;;;17.96;26.68;99354.83;108122;1255;60658;-65
2023/03/31 05:37:57;;;;;;;33.90;13.50;;;;;;;18.06;26.62;99351.70;108103;1254;75097;-65
2023/03/31 05:40:24;;;;;;;28.50;12.20;;;;;;;18.13;26.50;99347.58;108267;1254;69951;-65
2023/03/31 05:42:51;;;;;;;23.70;12.40;;;;;;;18.23;26.61;99344.63;108289;1253;73839;-63
2023/03/31 05:45:18;;;;;;;24.90;12.50;;;;;;;17.80;26.95;99342.02;108131;1257;60280;-66
2023/03/31 05:47:45;;;;;;;27.70;12.00;;;;;;;18.00;26.88;99332.64;108118;1254;60013;-65
2023/03/31 05:50:13;;;;;;;25.70;11.40;;;;;;;18.23;26.72;99325.25;108202;1254;74198;-66
2023/03/31 05:52:41;;;;;;;22.60;12.00;;;;;;;18.29;26.65;99321.95;108209;1254;70639;-65
2023/03/31 05:55:09;;;;;;;27.30;12.90;;;;;;;18.62;26.46;99316.17;108201;1253;72612;-66
2023/03/31 05:57:37;;;;;;;19.90;11.20;;;;;;;18.63;26.26;99307.20;108146;1253;62217;-66
2023/03/31 06:00:05;;;;;;;30.20;12.30;;;;;;;18.62;26.31;99302.14;108185;1254;60968;-68
2023/03/31 06:02:33;;;;;;;24.50;11.80;;;;;;;18.60;26.42;99306.19;108191;1254;73553;-67
2023/03/31 06:05:00;;;;;;;17.20;9.60;;;;;;;18.28;26.67;99314.02;108167;1253;70397;-67
2023/03/31 06:07:28;;;;;;;20.20;10.70;;;;;;;17.84;27.08;99315.07;108185;1255;71240;-66
2023/03/31 06:09:56;;;;;;;21.30;9.80;;;;;;;18.09;27.01;99306.29;108151;1254;61120;-65
2023/03/31 06:12:23;;;;;;;25.90;10.90;;;;;;;17.80;27.43;99299.90;108167;1253;60442;-66
2023/03/31 06:14:50;;;;;;;20.60;10.10;;;;;;;18.29;27.13;99288.85;108162;1255;72906;-65
2023/03/31 06:17:17;;;;;;;27.60;10.90;;;;;;;18.43;26.80;99285.79;108113;1254;71254;-65
2023/03/31 06:19:45;;;;;;;21.40;11.30;;;;;;;18.44;27.00;99288.86;108224;1253;71984;-67
2023/03/31 06:22:12;;;;;;;24.30;10.40;;;;;;;18.72;26.60;99287.29;108095;1256;61534;-65
2023/03/31 06:24:39;;;;;;;39.30;23.40;;;;;;;18.70;26.46;99282.95;108142;1254;60444;-67
2023/03/31 06:27:06;;;;;;;24.70;11.60;;;;;;;18.86;26.38;99280.93;108175;1253;73398;-66
2023/03/31 06:29:33;;;;;;;30.40;13.30;;;;;;;18.68;26.58;99284.20;108079;1258;71287;-67
2023/03/31 06:32:00;;;;;;;20.00;11.50;;;;;;;18.70;26.64;99280.30;108121;1254;72551;-66
2023/03/31 06:34:26;;;;;;;24.00;11.50;;;;;;;18.64;26.79;99282.42;108166;1254;60750;-65
2023/03/31 06:36:53;;;;;;;23.10;10.60;;;;;;;18.33;26.91;99275.20;108133;1257;60384;-67
2023/03/31 06:39:20;;;;;;;22.20;10.90;;;;;;;18.40;26.94;99273.41;108142;1257;74834;-66
2023/03/31 06:41:47;;;;;;;23.30;11.10;;;;;;;18.40;27.11;99267.51;108151;1254;70635;-63
2023/03/31 06:44:21;;;;;;;26.00;10.60;;;;;;;18.78;26.79;99266.89;108107;1254;72200;-64
2023/03/31 06:46:48;;;;;;;21.30;9.30;;;;;;;19.11;26.47;99264.77;108203;1254;60569;-64
2023/03/31 06:49:15;;;;;;;22.60;10.00;;;;;;;18.77;26.63;99271.39;108187;1253;61425;-66
2023/03/31 06:51:43;;;;;;;19.00;10.10;;;;;;;18.90;26.53;99272.56;108075;1256;74654;-66
2023/03/31 06:54:10;;;;;;;20.30;10.50;;;;;;;19.03;26.48;99273.84;108158;1254;70497;-66
2023/03/31 06:56:38;;;;;;;23.40;11.80;;;;;;;19.11;26.50;99276.19;108087;1257;71648;-67
2023/03/31 06:59:05;;;;;;;20.30;10.80;;;;;;;19.30;26.28;99280.05;108151;1254;59240;-67
2023/03/31 07:01:36;;;;;;;22.20;12.30;;;;;;;18.83;26.70;99279.98;108159;1253;60173;-67
2023/03/31 07:04:05;;;;;;;24.20;11.90;;;;;;;19.22;26.55;99273.62;108106;1253;74043;-68
2023/03/31 07:06:32;;;;;;;23.00;11.40;;;;;;;19.32;26.47;99266.54;108166;1254;70432;-68
2023/03/31 07:08:58;;;;;;;22.90;10.30;;;;;;;18.95;26.79;99267.34;108118;1254;72832;-67
2023/03/31 07:11:27;;;;;;;28.80;12.30;;;;;;;19.49;26.49;99265.72;108116;1257;60797;-67
2023/03/31 07:13:56;;;;;;;23.70;11.40;;;;;;;19.72;26.18;99262.52;108168;1254;60434;-67
2023/03/31 07:16:23;;;;;;;23.40;11.40;;;;;;;19.81;26.11;99261.01;108098;1254;74885;-67
2023/03/31 07:18:53;;;;;;;22.70;12.30;;;;;;;19.94;25.87;99258.39;108163;1254;71251;-68
2023/03/31 07:21:20;;;;;;;25.50;12.70;;;;;;;19.74;26.09;99252.67;108248;1254;72428;-67
2023/03/31 07:23:47;;;;;;;22.80;11.70;;;;;;;19.88;26.08;99253.58;108133;1254;60880;-67
2023/03/31 07:26:16;;;;;;;24.30;12.40;;;;;;;20.16;25.84;99248.75;108156;1254;61570;-66
2023/03/31 07:28:44;;;;;;;31.30;12.70;;;;;;;20.36;25.59;99239.98;108194;1254;73734;-66
2023/03/31 07:31:20;;;;;;;26.50;11.70;;;;;;;20.37;25.37;99235.41;108132;1253;71386;-65
2023/03/31 07:33:47;;;;;;;24.10;12.30;;;;;;;20.03;25.54;99238.15;108081;1255;73099;-68
2023/03/31 07:36:14;;;;;;;27.00;12.10;;;;;;;20.10;25.52;99234.30;108051;1254;60782;-67
2023/03/31 07:38:45;;;;;;;19.50;10.60;;;;;;;19.92;25.66;99235.08;108088;1254;60438;-68
2023/03/31 07:41:12;;;;;;;20.20;11.10;;;;;;;19.98;25.46;99230.61;108225;1254;72991;-67
2023/03/31 07:43:39;;;;;;;22.70;10.80;;;;;;;20.31;25.26;99227.57;108107;1254;70925;-67
2023/03/31 07:46:07;;;;;;;19.60;10.80;;;;;;;19.88;25.55;99230.83;108143;1254;73520;-67
2023/03/31 07:48:34;;;;;;;30.50;11.20;;;;;;;20.21;25.29;99224.98;108093;1253;60400;-68
2023/03/31 07:51:00;;;;;;;22.30;10.80;;;;;;;20.17;25.36;99219.93;108068;1254;60493;-67
2023/03/31 07:53:31;;;;;;;20.90;11.30;;;;;;;20.21;25.40;99219.42;108030;1253;73717;-68
2023/03/31 07:55:58;;;;;;;27.50;12.70;;;;;;;20.68;24.92;99218.79;108086;1254;71580;-67
2023/03/31 07:58:26;;;;;;;20.50;10.40;;;;;;;20.50;25.24;99215.17;108091;1254;73016;-68
2023/03/31 08:00:52;;;;;;;21.60;11.80;;;;;;;20.37;25.43;99210.29;108143;1254;59581;-67
2023/03/31 08:03:21;;;;;;;20.70;11.50;;;;;;;21.03;24.97;99210.41;108101;1254;60411;-67
2023/03/31 08:05:52;;;;;;;23.70;11.70;;;;;;;21.02;24.72;99210.66;108109;1254;73918;-68
2023/03/31 08:08:19;;;;;;;25.80;11.60;;;;;;;21.07;24.72;99204.11;108135;1254;69192;-68
2023/03/31 08:10:47;;;;;;;29.80;12.60;;;;;;;21.53;24.35;99203.98;108231;1254;71832;-68
2023/03/31 08:13:14;;;;;;;22.80;11.20;;;;;;;21.59;23.97;99195.67;108157;1254;60100;-68
2023/03/31 08:15:41;;;;;;;22.10;11.30;;;;;;;22.11;23.71;99194.88;108027;1253;61280;-66
2023/03/31 08:18:08;;;;;;;22.10;10.70;;;;;;;21.90;23.60;99191.45;108064;1252;74813;-68
2023/03/31 08:20:38;;;;;;;24.40;12.40;;;;;;;22.20;23.35;99184.77;108126;1254;70565;-68
2023/03/31 08:23:07;;;;;;;19.70;10.30;;;;;;;22.49;23.14;99185.88;108090;1253;71651;-67
2023/03/31 08:25:37;;;;;;;20.30;10.70;;;;;;;22.33;22.98;99178.27;108103;1253;59809;-66
2023/03/31 08:28:03;;;;;;;24.60;10.20;;;;;;;22.46;23.13;99177.83;108203;1254;60304;-67
2023/03/31 08:30:30;;;;;;;19.00;10.00;;;;;;;22.54;23.25;99174.48;108052;1254;74842;-68
2023/03/31 08:32:58;;;;;;;24.20;10.80;;;;;;;22.36;23.02;99169.48;108122;1254;71544;-68
2023/03/31 08:35:25;;;;;;;26.30;11.40;;;;;;;22.73;22.89;99173.83;108087;1257;72613;-67
2023/03/31 08:37:52;;;;;;;20.80;9.80;;;;;;;22.56;23.07;99169.27;108102;1253;60497;-67
2023/03/31 08:40:21;;;;;;;23.10;11.00;;;;;;;22.75;22.73;99171.86;108185;1253;60203;-67
2023/03/31 08:42:49;;;;;;;21.60;11.60;;;;;;;23.12;22.45;99165.69;108171;1254;75961;-69
2023/03/31 08:45:29;;;;;;;26.80;11.80;;;;;;;22.91;22.32;99166.58;108292;1254;71406;-68
2023/03/31 08:48:15;;;;;;;21.70;11.60;;;;;;;22.72;22.67;99165.85;108163;1257;73906;-68
2023/03/31 08:50:47;;;;;;;18.90;10.70;;;;;;;22.92;22.95;99161.70;108073;1254;60755;-68
2023/03/31 08:53:19;;;;;;;22.60;11.20;;;;;;;23.03;22.53;99159.02;108094;1253;61012;-66
2023/03/31 08:55:51;;;;;;;18.50;10.70;;;;;;;23.52;22.31;99150.82;108090;1253;74903;-67
2023/03/31 08:58:27;;;;;;;19.10;9.80;;;;;;;23.95;21.89;99147.50;108113;1254;71111;-67
2023/03/31 09:01:15;;;;;;;23.60;11.50;;;;;;;23.91;21.71;99145.59;108019;1254;72958;-67
2023/03/31 09:04:09;;;;;;;20.80;11.30;;;;;;;24.03;21.62;99141.95;108054;1254;60329;-68
2023/03/31 09:06:42;;;;;;;26.10;11.40;;;;;;;24.12;21.69;99138.75;107955;1258;60750;-67
2023/03/31 09:09:20;;;;;;;25.90;12.40;;;;;;;24.08;21.79;99139.31;108009;1254;73645;-68
2023/03/31 09:11:53;;;;;;;39.70;17.20;;;;;;;23.58;22.13;99135.59;107955;1254;70527;-67
2023/03/31 09:14:26;;;;;;;34.60;14.50;;;;;;;23.28;22.48;99136.73;108068;1254;72794;-67
2023/03/31 09:17:17;;;;;;;22.00;11.00;;;;;;;23.32;22.54;99133.27;107995;1258;60710;-68
2023/03/31 09:19:52;;;;;;;32.80;12.30;;;;;;;23.33;22.35;99130.32;108041;1254;61563;-65
2023/03/31 09:22:22;;;;;;;74.70;26.70;;;;;;;22.59;23.17;99131.60;108051;1254;74138;-66
2023/03/31 09:25:10;;;;;;;35.00;12.90;;;;;;;22.60;23.26;99135.00;108111;1254;71501;-67
2023/03/31 09:27:43;;;;;;;23.40;11.30;;;;;;;22.58;23.18;99133.28;108085;1254;71854;-68
2023/03/31 09:30:22;;;;;;;20.90;10.40;;;;;;;22.56;23.29;99129.37;107827;1254;62157;-67
2023/03/31 09:32:52;;;;;;;20.20;10.40;;;;;;;22.86;23.12;99120.96;108149;1254;60767;-65
2023/03/31 09:35:24;;;;;;;22.40;11.40;;;;;;;23.15;22.73;99108.29;108008;1254;74715;-66
2023/03/31 09:37:51;;;;;;;63.90;25.30;;;;;;;23.19;22.85;99098.27;108088;1254;70871;-68
2023/03/31 09:40:20;;;;;;;57.00;26.30;;;;;;;23.25;22.45;99102.39;108100;1254;72045;-68
2023/03/31 09:42:48;;;;;;;40.00;17.60;;;;;;;23.16;22.71;99102.26;107931;1254;60681;-67
2023/03/31 09:45:16;;;;;;;19.60;10.90;;;;;;;23.47;22.20;99098.45;107968;1254;60211;-67
2023/03/31 09:47:46;;;;;;;17.90;9.80;;;;;;;23.56;22.15;99094.89;108056;1254;73772;-66
2023/03/31 09:50:14;;;;;;;18.80;9.10;;;;;;;23.40;22.24;99099.51;108154;1254;68859;-66
2023/03/31 09:52:50;;;;;;;19.80;8.90;;;;;;;23.47;21.98;99099.09;107968;1254;72020;-67
2023/03/31 09:55:41;;;;;;;19.90;9.00;;;;;;;23.84;21.69;99093.34;108205;1254;60441;-66
2023/03/31 09:58:12;;;;;;;18.00;9.40;;;;;;;23.29;21.62;99092.83;108051;1254;60476;-67
2023/03/31 10:00:40;;;;;;;19.80;8.70;;;;;;;23.69;21.20;99084.25;108148;1253;72769;-70
2023/03/31 10:03:11;;;;;;;18.80;9.20;;;;;;;23.64;21.46;99079.86;108208;1253;68462;-68
2023/03/31 10:05:49;;;;;;;16.10;8.30;;;;;;;23.51;21.35;99077.02;108125;1253;72364;-67
2023/03/31 10:08:26;;;;;;;19.00;9.60;;;;;;;23.54;20.99;99073.28;108139;1253;60422;-67
2023/03/31 10:11:01;;;;;;;16.50;9.00;;;;;;;23.40;21.22;99065.30;108211;1252;60361;-66
2023/03/31 10:14:12;;;;;;;19.00;8.70;;;;;;;22.94;21.53;99068.53;108130;1253;73113;-67
2023/03/31 10:16:45;;;;;;;16.50;8.20;;;;;;;23.04;21.29;99067.30;108060;1253;69853;-67
2023/03/31 10:19:26;;;;;;;14.20;7.80;;;;;;;22.89;20.40;99066.17;108135;1254;73565;-67
2023/03/31 10:21:57;;;;;;;16.20;7.20;;;;;;;23.08;20.32;99056.84;108118;1253;61542;-68
2023/03/31 10:24:25;;;;;;;18.70;7.30;;;;;;;23.05;19.41;99058.46;108099;1257;61421;-68
2023/03/31 10:26:57;;;;;;;14.50;7.20;;;;;;;22.96;19.80;99054.77;108081;1253;74181;-68
2023/03/31 10:29:31;;;;;;;21.00;9.50;;;;;;;22.81;19.58;99053.80;108082;1253;70803;-67
2023/03/31 10:32:03;;;;;;;18.70;7.90;;;;;;;22.81;19.80;99054.67;108076;1253;74259;-67
2023/03/31 10:34:30;;;;;;;12.90;6.90;;;;;;;22.95;19.95;99047.73;108116;1253;60445;-68
2023/03/31 10:36:58;;;;;;;14.00;7.50;;;;;;;22.88;19.70;99048.20;108106;1253;60534;-68
2023/03/31 10:39:28;;;;;;;15.70;8.00;;;;;;;22.84;19.61;99045.05;108088;1253;74836;-67
2023/03/31 10:41:55;;;;;;;15.00;7.20;;;;;;;22.71;19.97;99048.08;108109;1253;70484;-67
2023/03/31 10:44:33;;;;;;;15.20;7.30;;;;;;;22.97;19.82;99041.54;107952;1253;73770;-67
2023/03/31 10:47:14;;;;;;;17.20;8.00;;;;;;;22.91;20.04;99041.30;108169;1253;61127;-69
2023/03/31 10:49:42;;;;;;;16.90;8.30;;;;;;;23.13;19.88;99032.22;108044;1253;61325;-68
2023/03/31 10:52:21;;;;;;;17.70;9.10;;;;;;;23.11;19.90;99031.61;108081;1253;73170;-69
2023/03/31 10:54:50;;;;;;;21.70;8.50;;;;;;;23.41;19.98;99027.94;108216;1253;68699;-68
2023/03/31 10:57:17;;;;;;;15.20;7.40;;;;;;;23.15;19.70;99025.32;108163;1253;74080;-67
2023/03/31 10:59:51;;;;;;;16.10;7.70;;;;;;;23.20;19.92;99026.64;108094;1253;60820;-68
2023/03/31 11:02:18;;;;;;;16.00;7.80;;;;;;;23.25;19.83;99026.00;108237;1253;61056;-66
2023/03/31 11:04:57;;;;;;;13.30;7.40;;;;;;;23.43;19.80;99023.36;108193;1253;74453;-67
2023/03/31 11:07:33;;;;;;;14.60;8.10;;;;;;;23.63;19.61;99021.46;108217;1253;71416;-68
2023/03/31 11:10:33;;;;;;;14.10;7.40;;;;;;;23.42;19.91;99020.65;108112;1253;71697;-68
2023/03/31 11:13:20;;;;;;;;;;;;;;;23.16;20.32;99015.01;108123;1253;61043;-68
2023/03/31 11:15:59;;;;;;;20.10;8.40;;;;;;;23.19;20.22;99012.42;108187;1253;60358;-67
2023/03/31 11:18:47;;;;;;;15.40;8.40;;;;;;;23.27;20.39;99007.27;108164;1253;75086;-68
2023/03/31 11:21:19;;;;;;;17.50;8.00;;;;;;;23.17;20.44;99006.83;108164;1253;71084;-68
2023/03/31 11:25:59;;;;;;;17.10;8.10;;;;;;;20.75;23.21;99006.78;105042;1289;599482;-68
2023/03/31 11:28:32;;;;;;;15.40;8.50;;;;;;;22.79;21.10;98999.91;107369;1263;60705;-67
2023/03/31 11:31:12;;;;;;;18.10;8.00;;;;;;;23.36;20.56;98997.68;107414;1263;60749;-67
2023/03/31 11:34:03;;;;;;;14.20;7.80;;;;;;;23.06;20.91;98993.60;107395;1263;73462;-68
2023/03/31 11:37:10;;;;;;;16.30;8.50;;;;;;;22.67;21.16;98996.02;107402;1263;70642;-68